Time;durP1;ratioP1;P1;durP2;ratioP2;P2;SDS_P1;SDS_P2;PMS_P1;PMS_P2;Temp;Humidity;BMP_temperature;BMP_pressure;BME280_temperature;BME280_humidity;BME280_pressure;Samples;Min_cycle;Max_cycle;Signal;HPM_P1;HPM_P2
2022/06/13 00:00:43;;;;;;;;;;;;;;;22.87;78.59;99298.53;5045984;28;19995;-52
2022/06/13 00:03:08;;;;;;;;;;;;;;;22.37;80.66;99298.03;5046804;28;19952;-50
2022/06/13 00:05:34;;;;;;;;;;;;;;;21.75;84.03;99304.38;5026573;28;19951;-54
2022/06/13 00:08:00;;;;;;;;;;;;;;;21.58;86.41;99305.63;5045680;28;19960;-53
2022/06/13 00:10:25;;;;;;;;;;;;;;;21.22;88.95;99298.59;5043792;28;20007;-53
2022/06/13 00:12:50;;;;;;;;;;;;;;;20.77;93.10;99298.25;5047252;28;19954;-54
2022/06/13 00:15:16;;;;;;;;;;;;;;;20.88;92.07;99304.41;5043083;28;19920;-53
2022/06/13 00:17:42;;;;;;;;;;;;;;;21.87;87.89;99293.00;5046380;28;19919;-54
2022/06/13 00:20:07;;;;;;;;;;;;;;;22.57;83.84;99293.06;5044977;28;20093;-52
2022/06/13 00:22:33;;;;;;;;;;;;;;;22.68;81.15;99291.25;5043161;28;20484;-54
2022/06/13 00:24:58;;;;;;;;;;;;;;;22.80;81.08;99293.91;5044751;28;19927;-53
2022/06/13 00:27:24;;;;;;;;;;;;;;;22.79;80.05;99292.25;5044882;28;19916;-55
2022/06/13 00:29:49;;;;;;;;;;;;;;;22.88;79.69;99289.72;5045253;28;19924;-53
2022/06/13 00:32:15;;;;;;;;;;;;;;;22.69;81.07;99292.97;5027656;28;19928;-51
2022/06/13 00:34:40;;;;;;;;;;;;;;;22.75;81.15;99292.47;5025533;28;19923;-54
2022/06/13 00:37:06;;;;;;;;;;;;;;;22.79;80.15;99287.81;5043209;28;19928;-53
2022/06/13 00:39:31;;;;;;;;;;;;;;;22.63;82.16;99287.34;5048326;28;19920;-54
2022/06/13 00:41:56;;;;;;;;;;;;;;;22.63;81.72;99284.72;5044219;28;20017;-52
2022/06/13 00:44:21;;;;;;;;;;;;;;;22.60;81.19;99275.25;5043975;28;20048;-53
2022/06/13 00:46:47;;;;;;;;;;;;;;;22.51;80.97;99274.22;5044655;28;20028;-55
2022/06/13 00:49:17;;;;;;;;;;;;;;;22.48;81.50;99268.34;5043383;28;19959;-56
2022/06/13 00:51:47;;;;;;;;;;;;;;;22.54;81.15;99271.34;5044109;28;19920;-54
2022/06/13 00:54:12;;;;;;;;;;;;;;;22.46;81.96;99257.97;5026538;28;20026;-53
2022/06/13 00:56:37;;;;;;;;;;;;;;;22.58;81.83;99257.97;5044002;28;19920;-52
2022/06/13 00:59:05;;;;;;;;;;;;;;;22.57;82.01;99259.75;5046520;28;19967;-53
2022/06/13 01:01:31;;;;;;;;;;;;;;;22.43;82.44;99260.00;5007609;28;20370;-54
2022/06/13 01:03:57;;;;;;;;;;;;;;;22.38;82.64;99268.22;5026464;28;19978;-54
2022/06/13 01:06:22;;;;;;;;;;;;;;;22.48;82.53;99268.34;5046422;28;20748;-55
2022/06/13 01:08:47;;;;;;;;;;;;;;;22.42;82.81;99264.44;5028419;28;19916;-55
2022/06/13 01:11:16;;;;;;;;;;;;;;;22.40;82.81;99262.84;5042081;28;19924;-54
2022/06/13 01:13:45;;;;;;;;;;;;;;;22.40;82.74;99258.44;5028404;28;20491;-54
2022/06/13 01:16:28;;;;;;;;;;;;;;;22.48;82.08;99257.84;5043607;28;19916;-53
2022/06/13 01:18:56;;;;;;;;;;;;;;;22.44;82.47;99252.03;5045225;28;19920;-53
2022/06/13 01:21:57;;;;;;;;;;;;;;;22.24;83.26;99252.72;5043150;28;19929;-54
2022/06/13 01:24:22;;;;;;;;;;;;;;;22.31;81.95;99246.03;4982194;28;19953;-54
2022/06/13 01:27:13;;;;;;;;;;;;;;;22.36;82.46;99248.31;5031481;28;20018;-53
2022/06/13 01:29:38;;;;;;;;;;;;;;;21.48;85.85;99253.06;5004011;28;19952;-54
2022/06/13 01:32:24;;;;;;;;;;;;;;;21.43;86.23;99262.19;5047754;28;20029;-55
2022/06/13 01:34:58;;;;;;;;;;;;;;;21.54;86.93;99256.16;5043589;28;19924;-54
2022/06/13 01:37:42;;;;;;;;;;;;;;;21.34;86.29;99257.56;5025557;28;19924;-54
2022/06/13 01:40:14;;;;;;;;;;;;;;;21.09;88.73;99246.25;5043006;28;19924;-55
2022/06/13 01:42:55;;;;;;;;;;;;;;;21.28;88.37;99251.00;5025140;28;19963;-55
2022/06/13 01:45:32;;;;;;;;;;;;;;;21.30;87.63;99242.09;5044468;28;20334;-54
2022/06/13 01:48:02;;;;;;;;;;;;;;;21.26;88.60;99243.25;5026558;28;19944;-54
2022/06/13 01:50:32;;;;;;;;;;;;;;;21.46;87.36;99243.59;5024914;28;19927;-55
2022/06/13 01:52:58;;;;;;;;;;;;;;;21.56;86.48;99247.25;5026601;28;20396;-55
2022/06/13 01:55:29;;;;;;;;;;;;;;;21.60;86.25;99250.44;5043886;28;19917;-55
2022/06/13 01:58:15;;;;;;;;;;;;;;;21.26;88.32;99253.75;5009518;28;19920;-53
2022/06/13 02:00:40;;;;;;;;;;;;;;;21.26;88.80;99251.13;5001289;28;20047;-54
2022/06/13 02:03:10;;;;;;;;;;;;;;;21.49;88.04;99252.09;5026048;28;19920;-54
2022/06/13 02:05:36;;;;;;;;;;;;;;;21.64;87.14;99257.97;5023425;28;19950;-54
2022/06/13 02:08:14;;;;;;;;;;;;;;;21.49;87.69;99264.38;5025285;28;19920;-55
2022/06/13 02:10:41;;;;;;;;;;;;;;;21.68;87.55;99253.34;5042736;28;19921;-55
2022/06/13 02:13:08;;;;;;;;;;;;;;;21.72;87.56;99263.50;5044437;28;20347;-54
2022/06/13 02:15:36;;;;;;;;;;;;;;;21.75;87.47;99278.16;5024569;28;19928;-55
2022/06/13 02:18:03;;;;;;;;;;;;;;;21.72;87.47;99271.38;5024536;28;20027;-55
2022/06/13 02:20:31;;;;;;;;;;;;;;;21.67;87.75;99276.13;5041787;28;19928;-53
2022/06/13 02:23:01;;;;;;;;;;;;;;;21.71;88.07;99274.09;5025754;28;19924;-55
2022/06/13 02:25:29;;;;;;;;;;;;;;;21.79;87.64;99276.16;5041584;28;20789;-55
2022/06/13 02:27:57;;;;;;;;;;;;;;;21.68;87.75;99280.41;5027486;28;19966;-54
2022/06/13 02:30:24;;;;;;;;;;;;;;;21.70;87.38;99283.75;5044120;28;19923;-54
2022/06/13 02:32:51;;;;;;;;;;;;;;;21.78;87.74;99283.19;5026104;28;19928;-56
2022/06/13 02:35:24;;;;;;;;;;;;;;;21.71;87.27;99277.56;5026086;28;20023;-55
2022/06/13 02:37:57;;;;;;;;;;;;;;;21.72;88.05;99281.84;5023660;28;19920;-55
2022/06/13 02:40:33;;;;;;;;;;;;;;;21.71;88.33;99282.81;5023819;28;19917;-55
2022/06/13 02:43:00;;;;;;;;;;;;;;;21.50;88.79;99284.38;5025360;28;20448;-54
2022/06/13 02:45:26;;;;;;;;;;;;;;;21.40;88.74;99267.63;5041121;28;20058;-55
2022/06/13 02:48:01;;;;;;;;;;;;;;;20.97;90.07;99268.06;5043241;28;20385;-56
2022/06/13 02:50:29;;;;;;;;;;;;;;;20.81;90.69;99269.16;5026729;28;20081;-55
2022/06/13 02:53:03;;;;;;;;;;;;;;;20.82;91.90;99269.97;5041591;28;19920;-56
2022/06/13 02:55:29;;;;;;;;;;;;;;;20.86;91.91;99277.50;5024156;28;20413;-55
2022/06/13 02:58:05;;;;;;;;;;;;;;;21.01;91.33;99269.53;5025281;28;19924;-55
2022/06/13 03:00:30;;;;;;;;;;;;;;;20.78;91.23;99272.00;5022890;28;19920;-56
2022/06/13 03:02:56;;;;;;;;;;;;;;;20.73;92.28;99270.63;5043034;28;20356;-54
2022/06/13 03:05:40;;;;;;;;;;;;;;;20.83;91.96;99266.44;5042815;28;20082;-55
2022/06/13 03:08:08;;;;;;;;;;;;;;;20.82;92.01;99276.06;5043876;28;19947;-55
2022/06/13 03:10:39;;;;;;;;;;;;;;;20.81;91.98;99263.91;5042152;28;19917;-54
2022/06/13 03:13:07;;;;;;;;;;;;;;;20.84;91.73;99274.16;5026985;28;19917;-55
2022/06/13 03:15:50;;;;;;;;;;;;;;;20.45;93.15;99275.94;5023665;28;19970;-56
2022/06/13 03:18:17;;;;;;;;;;;;;;;20.50;93.68;99280.03;5022203;28;19932;-55
2022/06/13 03:20:49;;;;;;;;;;;;;;;20.44;93.85;99279.53;5025754;28;20313;-55
2022/06/13 03:23:15;;;;;;;;;;;;;;;20.66;93.17;99280.69;5043177;28;19916;-55
2022/06/13 03:25:47;;;;;;;;;;;;;;;20.36;93.97;99273.97;5026873;28;19959;-54
2022/06/13 03:28:16;;;;;;;;;;;;;;;20.12;97.32;99273.03;5043006;28;19920;-54
2022/06/13 03:30:42;;;;;;;;;;;;;;;20.53;95.98;99272.00;5041077;28;19920;-55
2022/06/13 03:35:53;;;;;;;;;;;;;;;20.86;94.73;99282.75;5026869;28;20443;-54
2022/06/13 03:38:26;;;;;;;;;;;;;;;20.78;94.94;99279.84;5023444;28;19925;-55
2022/06/13 03:40:53;;;;;;;;;;;;;;;20.79;95.85;99291.97;5021982;28;19982;-55
2022/06/13 03:43:23;;;;;;;;;;;;;;;20.70;96.62;99290.00;5024701;28;20043;-56
2022/06/13 03:45:49;;;;;;;;;;;;;;;20.81;97.08;99289.25;5026497;28;20309;-55
2022/06/13 03:48:16;;;;;;;;;;;;;;;20.75;98.73;99285.28;5040015;28;19921;-56
2022/06/13 03:50:43;;;;;;;;;;;;;;;20.80;98.45;99291.03;5023970;28;19921;-55
2022/06/13 03:53:11;;;;;;;;;;;;;;;20.81;98.52;99284.84;5024745;28;19921;-54
2022/06/13 03:55:41;;;;;;;;;;;;;;;20.86;98.61;99287.97;5022988;28;19920;-53
2022/06/13 03:58:08;;;;;;;;;;;;;;;20.93;98.98;99291.00;5022598;28;19924;-55
2022/06/13 04:00:35;;;;;;;;;;;;;;;20.85;98.41;99288.09;5042149;28;19920;-55
2022/06/13 04:03:00;;;;;;;;;;;;;;;20.89;99.46;99290.41;5027123;28;19916;-55
2022/06/13 04:05:29;;;;;;;;;;;;;;;21.05;99.60;99287.53;5043438;28;19921;-56
2022/06/13 04:07:55;;;;;;;;;;;;;;;21.05;99.37;99286.69;5026325;28;19959;-54
2022/06/13 04:10:23;;;;;;;;;;;;;;;20.96;100.00;99308.28;5025536;28;20035;-54
2022/06/13 04:12:54;;;;;;;;;;;;;;;21.00;100.00;99305.34;5044677;28;19920;-56
2022/06/13 04:15:20;;;;;;;;;;;;;;;20.78;100.00;99295.53;5043910;28;19923;-54
2022/06/13 04:17:45;;;;;;;;;;;;;;;20.96;100.00;99290.81;5045254;28;19921;-54
2022/06/13 04:20:14;;;;;;;;;;;;;;;21.18;100.00;99282.25;5046671;28;19917;-55
2022/06/13 04:22:40;;;;;;;;;;;;;;;21.27;100.00;99283.38;5025410;28;19921;-56
2022/06/13 04:25:15;;;;;;;;;;;;;;;21.42;100.00;99295.41;5028404;28;19920;-54
2022/06/13 04:27:43;;;;;;;;;;;;;;;21.52;99.74;99292.97;5045599;28;20558;-55
2022/06/13 04:30:22;;;;;;;;;;;;;;;21.44;100.00;99300.53;5024493;28;19936;-55
2022/06/13 04:33:04;;;;;;;;;;;;;;;21.45;100.00;99307.44;5028326;28;19920;-56
2022/06/13 04:35:30;;;;;;;;;;;;;;;21.34;99.07;99307.34;5028867;28;19921;-55
2022/06/13 04:37:56;;;;;;;;;;;;;;;21.26;100.00;99300.06;5026972;28;20271;-55
2022/06/13 04:40:23;;;;;;;;;;;;;;;21.12;100.00;99298.41;5024189;28;20023;-56
2022/06/13 04:42:48;;;;;;;;;;;;;;;21.64;98.75;99292.03;5025470;28;20524;-54
2022/06/13 04:45:21;;;;;;;;;;;;;;;21.83;98.22;99295.97;5029566;28;20028;-55
2022/06/13 04:47:47;;;;;;;;;;;;;;;22.02;97.75;99290.19;5027616;28;19920;-56
2022/06/13 04:50:16;;;;;;;;;;;;;;;21.91;97.27;99288.34;5025098;28;19924;-56
2022/06/13 04:52:41;;;;;;;;;;;;;;;22.06;99.47;99286.38;5027887;28;20085;-56
2022/06/13 04:55:11;;;;;;;;;;;;;;;21.98;98.78;99289.56;5045977;28;20504;-56
2022/06/13 04:57:36;;;;;;;;;;;;;;;21.94;95.96;99296.00;5028202;28;20740;-54
2022/06/13 05:00:05;;;;;;;;;;;;;;;22.04;97.31;99286.50;5026548;28;20010;-55
2022/06/13 05:02:40;;;;;;;;;;;;;;;22.07;94.53;99302.00;5043684;28;19932;-56
2022/06/13 05:05:08;;;;;;;;;;;;;;;21.55;99.05;99311.06;5043636;28;19925;-55
2022/06/13 05:07:33;;;;;;;;;;;;;;;21.18;99.41;99316.28;5029754;28;20459;-55
2022/06/13 05:10:00;;;;;;;;;;;;;;;21.76;95.80;99308.69;5045362;28;19975;-54
2022/06/13 05:12:33;;;;;;;;;;;;;;;20.99;100.00;99329.84;5028642;28;20392;-51
2022/06/13 05:15:04;;;;;;;;;;;;;;;20.50;100.00;99333.19;5029210;28;19921;-50
2022/06/13 05:17:52;;;;;;;;;;;;;;;20.05;100.00;99338.78;5046241;28;20442;-53
2022/06/13 05:20:36;;;;;;;;;;;;;;;19.71;100.00;99334.91;5027582;28;20025;-50
2022/06/13 05:23:20;;;;;;;;;;;;;;;20.68;100.00;99318.88;5046473;28;19920;-52
2022/06/13 05:25:45;;;;;;;;;;;;;;;20.70;100.00;99318.78;5045360;28;19999;-50
2022/06/13 05:28:11;;;;;;;;;;;;;;;21.05;100.00;99324.19;5027862;28;19916;-50
2022/06/13 05:30:38;;;;;;;;;;;;;;;21.34;100.00;99328.31;5046000;28;19971;-51
2022/06/13 05:33:03;;;;;;;;;;;;;;;21.15;100.00;99334.03;5043227;28;20181;-52
2022/06/13 05:35:31;;;;;;;;;;;;;;;20.50;100.00;99334.97;5045518;28;19978;-50
2022/06/13 05:37:57;;;;;;;;;;;;;;;20.59;100.00;99335.22;5045113;28;19964;-52
2022/06/13 05:40:22;;;;;;;;;;;;;;;21.12;100.00;99340.31;5025124;28;19923;-53
2022/06/13 05:42:47;;;;;;;;;;;;;;;20.50;100.00;99342.81;5045139;28;20736;-51
2022/06/13 05:45:13;;;;;;;;;;;;;;;21.71;100.00;99347.50;5041771;28;20402;-51
2022/06/13 05:47:39;;;;;;;;;;;;;;;21.01;100.00;99348.09;5043495;28;19913;-53
2022/06/13 05:50:04;;;;;;;;;;;;;;;21.14;100.00;99351.50;5023730;28;19978;-50
2022/06/13 05:52:29;;;;;;;;;;;;;;;21.29;100.00;99353.06;5044923;28;20550;-49
2022/06/13 05:54:55;;;;;;;;;;;;;;;21.33;100.00;99351.06;5026671;28;19928;-52
2022/06/13 05:57:20;;;;;;;;;;;;;;;20.98;100.00;99351.75;5043364;28;20000;-53
2022/06/13 05:59:45;;;;;;;;;;;;;;;21.78;100.00;99337.41;5044075;28;19929;-52
2022/06/13 06:02:10;;;;;;;;;;;;;;;22.10;99.73;99333.25;5044172;28;19931;-50
2022/06/13 06:04:35;;;;;;;;;;;;;;;22.04;98.29;99323.22;5045404;28;20603;-53
2022/06/13 06:07:01;;;;;;;;;;;;;;;22.37;100.00;99337.38;5041414;28;20595;-51
2022/06/13 06:09:26;;;;;;;;;;;;;;;22.21;99.80;99324.59;5043954;28;20522;-53
2022/06/13 06:11:51;;;;;;;;;;;;;;;22.52;99.93;99330.16;5025491;28;19970;-52
2022/06/13 06:14:16;;;;;;;;;;;;;;;22.55;99.43;99336.00;5043501;28;19916;-52
2022/06/13 06:16:42;;;;;;;;;;;;;;;22.49;97.00;99336.47;5042717;28;19921;-51
2022/06/13 06:19:07;;;;;;;;;;;;;;;21.89;100.00;99359.25;5042827;28;19924;-49
2022/06/13 06:21:32;;;;;;;;;;;;;;;22.16;100.00;99341.59;5047154;28;19916;-52
2022/06/13 06:23:57;;;;;;;;;;;;;;;22.18;100.00;99344.97;5043372;28;19916;-54
2022/06/13 06:26:23;;;;;;;;;;;;;;;21.20;100.00;99369.41;5044225;28;20365;-53
2022/06/13 06:28:49;;;;;;;;;;;;;;;21.07;100.00;99379.06;5040947;28;20946;-53
2022/06/13 06:31:14;;;;;;;;;;;;;;;21.00;100.00;99398.78;5040709;28;19916;-51
2022/06/13 06:33:39;;;;;;;;;;;;;;;20.69;100.00;99393.03;5040076;28;19917;-53
2022/06/13 06:36:05;;;;;;;;;;;;;;;20.92;100.00;99401.09;5042969;28;19917;-49
2022/06/13 06:38:30;;;;;;;;;;;;;;;21.44;100.00;99392.22;5044762;28;20016;-52
2022/06/13 06:40:55;;;;;;;;;;;;;;;20.01;100.00;99410.50;5044301;28;19920;-56
2022/06/13 06:43:21;;;;;;;;;;;;;;;20.74;100.00;99396.16;5041625;28;19917;-54
2022/06/13 06:45:46;;;;;;;;;;;;;;;21.25;100.00;99385.63;5044566;28;19936;-53
2022/06/13 06:48:12;;;;;;;;;;;;;;;21.15;100.00;99397.72;5043914;28;19939;-54
2022/06/13 06:50:38;;;;;;;;;;;;;;;21.18;100.00;99386.19;5042792;28;19928;-53
2022/06/13 06:53:03;;;;;;;;;;;;;;;21.47;100.00;99392.88;5025263;28;20940;-51
2022/06/13 07:01:15;;;;;;;;;;;;;;;20.36;100.00;99396.91;5000455;28;19921;-51
2022/06/13 07:03:40;;;;;;;;;;;;;;;20.37;100.00;99400.38;5034341;28;19923;-53
2022/06/13 07:06:07;;;;;;;;;;;;;;;20.46;100.00;99394.53;5045661;28;19924;-52
2022/06/13 07:08:32;;;;;;;;;;;;;;;20.52;100.00;99385.44;5042352;28;20015;-54
2022/06/13 07:11:53;;;;;;;;;;;;;;;20.67;100.00;99376.59;5040557;28;19967;-53
2022/06/13 07:13:46;;;;;;;;;;;;;;;19.14;100.00;99388.06;5042458;28;19920;-52
2022/06/13 07:16:11;;;;;;;;;;;;;;;20.73;100.00;99386.63;5043328;28;19917;-51
2022/06/13 07:18:37;;;;;;;;;;;;;;;21.02;100.00;99386.41;5042732;28;19975;-51
2022/06/13 07:21:02;;;;;;;;;;;;;;;21.26;100.00;99395.19;5043727;28;20375;-48
2022/06/13 07:23:27;;;;;;;;;;;;;;;20.95;100.00;99393.03;5040253;28;19916;-52
2022/06/13 07:25:53;;;;;;;;;;;;;;;20.42;100.00;99398.28;5041749;28;19946;-50
2022/06/13 07:28:18;;;;;;;;;;;;;;;20.82;100.00;99404.34;5039911;28;19917;-49
2022/06/13 07:30:43;;;;;;;;;;;;;;;19.68;100.00;99410.84;5040950;28;20354;-50
2022/06/13 07:33:08;;;;;;;;;;;;;;;20.86;100.00;99405.78;5044424;28;20388;-52
2022/06/13 07:35:33;;;;;;;;;;;;;;;20.42;100.00;99414.81;5025336;28;20006;-52
2022/06/13 07:38:17;;;;;;;;;;;;;;;20.55;100.00;99411.38;5042697;28;19916;-51
2022/06/13 07:40:43;;;;;;;;;;;;;;;21.18;100.00;99407.13;5042737;28;19920;-48
2022/06/13 07:43:11;;;;;;;;;;;;;;;22.08;100.00;99403.34;5044018;28;19960;-51
2022/06/13 07:45:39;;;;;;;;;;;;;;;22.11;100.00;99408.34;5024665;28;20634;-53
2022/06/13 07:48:04;;;;;;;;;;;;;;;22.12;100.00;99410.06;5038366;28;19916;-51
2022/06/13 07:50:30;;;;;;;;;;;;;;;21.64;100.00;99417.03;5042249;28;20389;-53
2022/06/13 07:52:57;;;;;;;;;;;;;;;22.74;100.00;99413.38;5049810;28;19996;-49
2022/06/13 07:55:23;;;;;;;;;;;;;;;22.67;100.00;99410.38;5047404;28;20007;-50
2022/06/13 07:57:49;;;;;;;;;;;;;;;22.06;100.00;99420.16;5028726;28;19990;-53
2022/06/13 08:00:19;;;;;;;;;;;;;;;22.18;100.00;99418.41;5025613;28;19927;-54
2022/06/13 08:02:44;;;;;;;;;;;;;;;22.32;100.00;99421.69;5048370;28;20634;-52
2022/06/13 08:05:09;;;;;;;;;;;;;;;21.71;100.00;99424.38;5046518;28;19916;-49
2022/06/13 08:07:35;;;;;;;;;;;;;;;22.66;100.00;99410.47;5045162;28;19986;-52
2022/06/13 08:10:00;;;;;;;;;;;;;;;23.60;100.00;99409.34;5048747;28;20459;-49
2022/06/13 08:12:25;;;;;;;;;;;;;;;23.73;100.00;99410.03;5046564;28;20373;-53
2022/06/13 08:14:50;;;;;;;;;;;;;;;23.03;100.00;99415.59;5048111;28;20499;-53
2022/06/13 08:17:16;;;;;;;;;;;;;;;22.76;100.00;99419.31;5046905;28;19979;-54
2022/06/13 08:19:42;;;;;;;;;;;;;;;23.06;100.00;99423.22;5046309;28;19927;-55
2022/06/13 08:22:07;;;;;;;;;;;;;;;23.56;100.00;99413.16;5047218;28;19916;-53
2022/06/13 08:24:33;;;;;;;;;;;;;;;23.42;100.00;99416.88;5046257;28;19921;-54
2022/06/13 08:26:58;;;;;;;;;;;;;;;23.26;100.00;99419.88;5045623;28;20043;-53
2022/06/13 08:29:23;;;;;;;;;;;;;;;23.56;100.00;99415.78;5043149;28;19931;-54
2022/06/13 08:31:48;;;;;;;;;;;;;;;23.91;100.00;99410.38;5027467;28;19920;-54
2022/06/13 08:34:14;;;;;;;;;;;;;;;24.27;100.00;99413.63;5048132;28;19955;-55
2022/06/13 08:36:39;;;;;;;;;;;;;;;23.96;100.00;99420.53;5045325;28;19994;-55
2022/06/13 08:39:04;;;;;;;;;;;;;;;24.42;100.00;99416.75;5044992;28;19970;-54
2022/06/13 08:41:29;;;;;;;;;;;;;;;23.56;100.00;99424.53;5044209;28;19920;-53
2022/06/13 08:44:03;;;;;;;;;;;;;;;23.78;100.00;99418.41;5046033;28;19917;-56
2022/06/13 08:46:47;;;;;;;;;;;;;;;22.26;100.00;99431.81;5046433;28;19923;-55
2022/06/13 08:49:21;;;;;;;;;;;;;;;22.59;100.00;99438.16;5025841;28;19921;-56
2022/06/13 08:51:52;;;;;;;;;;;;;;;23.08;100.00;99434.44;5044231;28;19923;-55
2022/06/13 08:54:19;;;;;;;;;;;;;;;24.44;100.00;99428.00;5028647;28;19916;-56
2022/06/13 08:56:45;;;;;;;;;;;;;;;24.05;100.00;99432.13;5030246;28;19916;-56
2022/06/13 08:59:22;;;;;;;;;;;;;;;24.41;100.00;99433.53;5045881;28;19927;-55
2022/06/13 09:01:56;;;;;;;;;;;;;;;24.08;100.00;99445.84;5046535;28;20006;-56
2022/06/13 09:04:26;;;;;;;;;;;;;;;22.96;100.00;99447.53;5026726;28;19916;-55
2022/06/13 09:07:15;;;;;;;;;;;;;;;23.86;100.00;99440.66;5046205;28;20020;-56
2022/06/13 09:09:49;;;;;;;;;;;;;;;23.67;100.00;99436.81;5031885;28;19924;-56
2022/06/13 09:12:17;;;;;;;;;;;;;;;23.25;100.00;99439.25;5046341;28;19924;-57
2022/06/13 09:14:57;;;;;;;;;;;;;;;24.45;100.00;99442.84;5027069;28;20011;-57
2022/06/13 09:17:26;;;;;;;;;;;;;;;22.97;100.00;99438.72;5026170;28;19923;-56
2022/06/13 09:19:55;;;;;;;;;;;;;;;23.62;100.00;99438.97;5043884;28;20416;-57
2022/06/13 09:22:28;;;;;;;;;;;;;;;25.06;95.22;99426.31;5029073;28;20053;-56
2022/06/13 09:24:59;;;;;;;;;;;;;;;25.90;95.87;99434.03;5027155;28;19923;-56
2022/06/13 09:27:26;;;;;;;;;;;;;;;25.27;96.09;99431.59;5044159;28;19921;-56
2022/06/13 09:29:53;;;;;;;;;;;;;;;26.41;91.67;99435.59;5025841;28;19935;-56
2022/06/13 09:32:19;;;;;;;;;;;;;;;26.04;93.34;99435.44;5027949;28;20505;-56
2022/06/13 09:34:46;;;;;;;;;;;;;;;23.43;95.58;99436.16;5045838;28;20411;-56
2022/06/13 09:37:12;;;;;;;;;;;;;;;23.44;98.12;99428.13;5046708;28;20440;-56
2022/06/13 09:39:38;;;;;;;;;;;;;;;24.13;92.38;99433.16;5047008;28;19939;-56
2022/06/13 09:42:13;;;;;;;;;;;;;;;22.55;100.00;99448.03;5045474;28;19924;-56
2022/06/13 09:44:56;;;;;;;;;;;;;;;23.41;100.00;99435.44;5046125;28;19917;-56
2022/06/13 09:47:39;;;;;;;;;;;;;;;22.93;97.12;99445.16;5044819;28;19921;-56
2022/06/13 09:50:14;;;;;;;;;;;;;;;22.84;96.54;99440.59;5045521;28;19967;-56
2022/06/13 09:52:54;;;;;;;;;;;;;;;23.78;95.26;99438.63;5044161;28;20447;-56
2022/06/13 09:55:22;;;;;;;;;;;;;;;23.85;97.35;99441.59;5026505;28;19916;-57
2022/06/13 09:58:19;;;;;;;;;;;;;;;22.58;100.00;99452.22;5042724;28;20001;-57
2022/06/13 10:01:03;;;;;;;;;;;;;;;22.00;100.00;99452.88;4988983;28;19948;-56
2022/06/13 10:03:34;;;;;;;;;;;;;;;22.17;98.92;99437.72;5043831;28;19935;-56
2022/06/13 10:06:07;;;;;;;;;;;;;;;23.16;100.00;99438.16;5043730;28;20216;-56
2022/06/13 10:08:39;;;;;;;;;;;;;;;24.39;100.00;99422.28;5028448;28;20274;-56
2022/06/13 10:11:19;;;;;;;;;;;;;;;22.82;87.99;99423.28;5025721;28;19916;-56
2022/06/13 10:14:04;;;;;;;;;;;;;;;24.80;84.80;99410.13;5011659;28;20298;-56
2022/06/13 10:16:36;;;;;;;;;;;;;;;23.65;88.35;99420.34;5026592;28;20374;-56
2022/06/13 10:19:19;;;;;;;;;;;;;;;23.64;96.65;99421.28;5043007;28;19951;-56
2022/06/13 10:21:48;;;;;;;;;;;;;;;22.11;94.59;99426.72;5042313;28;20505;-56
2022/06/13 10:24:17;;;;;;;;;;;;;;;21.65;96.95;99432.66;5028876;28;19916;-56
2022/06/13 10:26:46;;;;;;;;;;;;;;;21.28;97.46;99435.22;5042566;28;20404;-56
2022/06/13 10:29:17;;;;;;;;;;;;;;;21.80;94.91;99435.97;5045165;28;19974;-56
2022/06/13 10:31:47;;;;;;;;;;;;;;;22.89;96.56;99421.88;5027494;28;19916;-56
2022/06/13 10:34:29;;;;;;;;;;;;;;;21.50;99.43;99441.59;5027348;28;19960;-56
2022/06/13 10:36:57;;;;;;;;;;;;;;;22.19;98.97;99433.19;5043871;28;20019;-56
2022/06/13 10:39:23;;;;;;;;;;;;;;;22.67;95.27;99441.03;5041911;28;19920;-55
2022/06/13 10:41:49;;;;;;;;;;;;;;;23.95;95.40;99434.66;5025790;28;19928;-56
2022/06/13 10:44:15;;;;;;;;;;;;;;;23.61;99.72;99439.94;5025014;28;20631;-56
2022/06/13 10:46:44;;;;;;;;;;;;;;;25.39;94.02;99422.63;5026937;28;19927;-55
2022/06/13 10:49:21;;;;;;;;;;;;;;;23.28;90.42;99436.38;5024055;28;19974;-57
2022/06/13 10:51:47;;;;;;;;;;;;;;;22.35;89.64;99439.00;5042551;28;19920;-56
2022/06/13 10:54:16;;;;;;;;;;;;;;;22.12;88.31;99431.03;5026966;28;19927;-55
2022/06/13 10:56:48;;;;;;;;;;;;;;;22.71;93.50;99430.19;5043366;28;19967;-56
2022/06/13 10:59:27;;;;;;;;;;;;;;;23.11;91.69;99429.81;5008142;28;20338;-55
2022/06/13 11:01:56;;;;;;;;;;;;;;;24.36;92.52;99433.09;5045602;28;19926;-56
2022/06/13 11:04:21;;;;;;;;;;;;;;;24.40;88.71;99434.47;5043522;28;20342;-56
2022/06/13 11:06:48;;;;;;;;;;;;;;;25.81;87.62;99427.72;5042727;28;20016;-57
2022/06/13 11:09:22;;;;;;;;;;;;;;;25.86;84.57;99428.16;5045277;28;19922;-57
2022/06/13 11:11:52;;;;;;;;;;;;;;;23.87;86.21;99431.81;5042296;28;20028;-57
2022/06/13 11:14:36;;;;;;;;;;;;;;;25.35;84.34;99420.38;5008984;28;20362;-57
2022/06/13 11:22:37;;;;;;;;;;;;;;;26.94;64.14;99418.44;5047351;28;19931;-57
2022/06/13 11:25:10;;;;;;;;;;;;;;;25.26;73.90;99427.28;5033577;28;19920;-57
2022/06/13 11:27:42;;;;;;;;;;;;;;;24.57;74.69;99428.69;5030402;28;20333;-57
2022/06/13 11:30:25;;;;;;;;;;;;;;;24.03;73.17;99413.81;5029443;28;19965;-58
2022/06/13 11:32:59;;;;;;;;;;;;;;;26.02;73.30;99416.25;5048207;28;19924;-57
2022/06/13 11:35:27;;;;;;;;;;;;;;;26.91;64.87;99411.63;5048758;28;19947;-57
2022/06/13 11:37:53;;;;;;;;;;;;;;;25.91;58.00;99416.38;5047236;28;20038;-56
2022/06/13 11:40:24;;;;;;;;;;;;;;;22.96;68.01;99429.13;5047240;28;20441;-57
2022/06/13 11:42:52;;;;;;;;;;;;;;;23.04;73.38;99417.28;5047093;28;19920;-57
2022/06/13 11:45:19;;;;;;;;;;;;;;;22.85;76.60;99429.13;5049943;28;19916;-57
2022/06/13 11:47:45;;;;;;;;;;;;;;;22.87;76.90;99424.59;5029249;28;19921;-57
2022/06/13 11:50:14;;;;;;;;;;;;;;;21.42;84.15;99436.91;5044695;28;19923;-57
2022/06/13 11:55:26;;;;;;;;;;;;;;;20.97;82.77;99440.88;5033550;28;19967;-56
2022/06/13 11:57:53;;;;;;;;;;;;;;;21.93;79.25;99441.16;5046985;28;19946;-56
2022/06/13 12:00:19;;;;;;;;;;;;;;;22.18;78.73;99439.41;5027031;28;19917;-57
2022/06/13 12:02:50;;;;;;;;;;;;;;;24.24;79.01;99428.81;5048796;28;19924;-57
2022/06/13 12:05:22;;;;;;;;;;;;;;;24.22;73.76;99431.56;5045524;28;20031;-57
2022/06/13 12:07:53;;;;;;;;;;;;;;;24.04;76.78;99433.06;5028586;28;19927;-57
2022/06/13 12:10:20;;;;;;;;;;;;;;;24.31;69.21;99429.97;5045201;28;19964;-56
2022/06/13 12:12:46;;;;;;;;;;;;;;;24.21;65.24;99428.09;5045297;28;19932;-57
2022/06/13 12:15:12;;;;;;;;;;;;;;;23.89;66.40;99427.25;5047166;28;20290;-56
2022/06/13 12:17:48;;;;;;;;;;;;;;;23.78;66.68;99418.41;5044240;28;19912;-57
2022/06/13 12:20:19;;;;;;;;;;;;;;;23.12;62.45;99428.00;5028283;28;19916;-56
2022/06/13 12:22:47;;;;;;;;;;;;;;;22.04;58.82;99441.22;5029776;28;19948;-57
2022/06/13 12:25:12;;;;;;;;;;;;;;;24.43;59.06;99434.25;5044673;28;19927;-57
2022/06/13 12:27:49;;;;;;;;;;;;;;;24.27;64.29;99423.28;5046944;28;19920;-57
2022/06/13 12:30:18;;;;;;;;;;;;;;;24.36;61.96;99433.09;5029273;28;19987;-57
2022/06/13 12:32:55;;;;;;;;;;;;;;;22.55;65.21;99438.38;5046459;28;20293;-57
2022/06/13 12:35:23;;;;;;;;;;;;;;;22.59;68.79;99451.28;5043661;28;19921;-56
2022/06/13 12:37:52;;;;;;;;;;;;;;;21.96;67.55;99461.09;5043285;28;19920;-57
2022/06/13 12:40:26;;;;;;;;;;;;;;;21.91;70.89;99459.63;5048190;28;19942;-57
2022/06/13 12:42:51;;;;;;;;;;;;;;;21.19;79.85;99466.44;5045666;28;19974;-56
2022/06/13 12:45:16;;;;;;;;;;;;;;;21.00;85.20;99466.84;5049108;28;20374;-57
2022/06/13 12:47:46;;;;;;;;;;;;;;;20.56;86.78;99475.88;5048753;28;19921;-57
2022/06/13 12:50:23;;;;;;;;;;;;;;;21.98;86.81;99473.13;5027950;28;19999;-56
2022/06/13 12:52:52;;;;;;;;;;;;;;;22.37;84.05;99465.16;5047110;28;19927;-57
2022/06/13 12:55:24;;;;;;;;;;;;;;;22.33;80.54;99464.56;5028426;28;19920;-57
2022/06/13 12:58:08;;;;;;;;;;;;;;;23.64;78.12;99444.94;5044159;28;19942;-57
2022/06/13 13:00:40;;;;;;;;;;;;;;;24.11;70.66;99450.88;5046817;28;19929;-57
2022/06/13 13:03:23;;;;;;;;;;;;;;;24.48;64.18;99442.63;5029876;28;19916;-57
2022/06/13 13:06:08;;;;;;;;;;;;;;;24.76;62.50;99443.78;5046056;28;19928;-57
2022/06/13 13:08:51;;;;;;;;;;;;;;;24.11;59.03;99450.03;5045236;28;19920;-58
2022/06/13 13:11:16;;;;;;;;;;;;;;;23.87;67.91;99452.84;5043062;28;20019;-57